Private Wetterstation Grnau im Almtal
www.gruenau.tv

Wetterdaten: aktuell Montag, 27.05.2019 15:20
Datum Zeit Temperatur Temp. min Temp. max Luftfeuchte Luftdruck Regen Wind Richtung Richtung Sonne ET UV Solar Taupunkt Windchill Windben
27.05.2019 15:20 18,3 C 18,3 C 18,4 C 74 % 1007,4 hPa 0,0 l/m 4,6 km/h (1 Bft) NW 315 0 min 0,152 mm 0,5 UV-I 74 W/m 13,6 C 18,3 C 9,7 km/h (2 Bft)
27.05.2019 14:20 18,3 C 18,3 C 18,3 C 74 % 1008,0 hPa 0,0 l/m 7,3 km/h (2 Bft) N-NW 328 0 min 0,127 mm 2,0 UV-I 236 W/m 13,6 C 17,9 C 11,3 km/h (2 Bft)
27.05.2019 13:20 18,5 C 18,5 C 18,6 C 73 % 1008,6 hPa 0,0 l/m 6,8 km/h (2 Bft) N-NW 328 0 min 0,203 mm 1,0 UV-I 123 W/m 13,6 C 18,3 C 11,3 km/h (2 Bft)
27.05.2019 12:20 18,6 C 18,5 C 18,6 C 72 % 1009,1 hPa 0,0 l/m 9,8 km/h (2 Bft) N-NW 336 0 min 0,229 mm 4,0 UV-I 431 W/m 13,4 C 17,2 C 16,1 km/h (3 Bft)
27.05.2019 11:20 18,5 C 18,5 C 18,5 C 71 % 1009,3 hPa 0,0 l/m 8,8 km/h (2 Bft) N 359 0 min 0,203 mm 3,1 UV-I 359 W/m 13,1 C 17,4 C 16,1 km/h (3 Bft)
27.05.2019 10:20 18,0 C 17,9 C 18,0 C 72 % 1009,8 hPa 0,0 l/m 6,5 km/h (2 Bft) NW 309 10 min 0,178 mm 2,2 UV-I 294 W/m 12,9 C 18,0 C 9,7 km/h (2 Bft)
27.05.2019 09:20 16,2 C 16,1 C 16,2 C 77 % 1010,4 hPa 0,0 l/m 1,0 km/h (0 Bft) SW 219 0 min 0,102 mm 2,0 UV-I 327 W/m 12,2 C 16,2 C 3,2 km/h (1 Bft)
27.05.2019 08:20 14,6 C 14,4 C 14,6 C 78 % 1010,6 hPa 0,0 l/m 3,1 km/h (1 Bft) SW 233 0 min 0,076 mm 0,8 UV-I 179 W/m 10,8 C 14,6 C 9,7 km/h (2 Bft)
27.05.2019 07:20 12,9 C 12,8 C 12,9 C 78 % 1010,6 hPa 0,0 l/m 2,7 km/h (1 Bft) O-SO 104 0 min 0,051 mm 0,0 UV-I 135 W/m 9,2 C 12,9 C 8,0 km/h (2 Bft)
27.05.2019 06:20 12,3 C 12,3 C 12,4 C 78 % 1010,7 hPa 0,0 l/m 4,5 km/h (1 Bft) S-SO 156 0 min 0,025 mm 0,0 UV-I 62 W/m 8,6 C 12,3 C 9,7 km/h (2 Bft)
27.05.2019 05:20 12,6 C 12,6 C 12,7 C 78 % 1010,5 hPa 0,0 l/m 1,4 km/h (1 Bft) S-SO 164 0 min 0,000 mm 0,0 UV-I 5 W/m 8,9 C 12,6 C 4,8 km/h (1 Bft)
27.05.2019 04:20 13,6 C 13,6 C 13,7 C 79 % 1010,5 hPa 0,0 l/m 1,7 km/h (1 Bft) O 94 0 min 0,000 mm 0,0 UV-I 0 W/m 10,0 C 13,6 C 9,7 km/h (2 Bft)
27.05.2019 03:20 14,1 C 14,1 C 14,1 C 79 % 1011,0 hPa 0,0 l/m 3,3 km/h (1 Bft) O-SO 117 0 min 0,001 mm 0,0 UV-I 0 W/m 10,5 C 14,1 C 8,0 km/h (2 Bft)
27.05.2019 02:20 14,4 C 14,4 C 14,5 C 79 % 1011,3 hPa 0,0 l/m 4,5 km/h (1 Bft) SO 142 0 min 0,000 mm 0,0 UV-I 0 W/m 10,8 C 14,4 C 8,0 km/h (2 Bft)
27.05.2019 01:20 14,9 C 14,8 C 14,9 C 79 % 1011,9 hPa 0,0 l/m 1,3 km/h (1 Bft) SO 132 0 min 0,025 mm 0,0 UV-I 0 W/m 11,3 C 14,9 C 8,0 km/h (2 Bft)
27.05.2019 00:20 15,1 C 15,1 C 15,2 C 79 % 1012,2 hPa 0,0 l/m 5,8 km/h (2 Bft) SO 131 0 min 0,000 mm 0,0 UV-I 0 W/m 11,5 C 15,1 C 12,9 km/h (3 Bft)
26.05.2019 23:20 15,3 C 15,2 C 15,3 C 79 % 1012,7 hPa 0,0 l/m 2,6 km/h (1 Bft) O-SO 105 0 min 0,000 mm 0,0 UV-I 0 W/m 11,7 C 15,3 C 4,8 km/h (1 Bft)
26.05.2019 22:20 15,9 C 15,9 C 16,1 C 78 % 1012,7 hPa 0,0 l/m 3,2 km/h (1 Bft) SO 137 0 min 0,025 mm 0,0 UV-I 0 W/m 12,1 C 15,9 C 8,0 km/h (2 Bft)
26.05.2019 21:20 17,5 C 17,5 C 17,6 C 75 % 1012,6 hPa 0,0 l/m 4,0 km/h (1 Bft) O-SO 107 15 min 0,025 mm 0,0 UV-I 0 W/m 13,0 C 17,5 C 8,0 km/h (2 Bft)
26.05.2019 20:20 18,2 C 18,2 C 18,4 C 70 % 1012,4 hPa 0,0 l/m 2,5 km/h (1 Bft) NW 318 60 min 0,127 mm 0,0 UV-I 51 W/m 12,6 C 18,2 C 6,4 km/h (2 Bft)
26.05.2019 19:20 20,5 C 20,4 C 20,5 C 64 % 1012,4 hPa 0,0 l/m 4,1 km/h (1 Bft) NW 325 35 min 0,127 mm 0,0 UV-I 183 W/m 13,5 C 20,5 C 8,0 km/h (2 Bft)
26.05.2019 18:20 20,2 C 20,2 C 20,4 C 62 % 1012,7 hPa 0,0 l/m 8,2 km/h (2 Bft) N 351 20 min 0,254 mm 0,7 UV-I 146 W/m 12,7 C 19,5 C 11,3 km/h (2 Bft)
26.05.2019 17:20 21,1 C 21,1 C 21,2 C 59 % 1012,9 hPa 0,0 l/m 7,5 km/h (2 Bft) N-NO 12 45 min 0,330 mm 2,0 UV-I 573 W/m 12,8 C 20,7 C 11,3 km/h (2 Bft)
26.05.2019 16:20 20,8 C 20,8 C 20,9 C 61 % 1012,9 hPa 0,0 l/m 11,8 km/h (2 Bft) N 350 15 min 0,356 mm 3,6 UV-I 652 W/m 13,0 C 19,0 C 17,7 km/h (3 Bft)
26.05.2019 16:00 19,9 C 19,9 C 20,9 C 61 % 1013,1 hPa 0,0 l/m 8,0 km/h (2 Bft) N 360 0 min 0,356 mm 5,1 UV-I 835 W/m 12,2 C 19,2 C 19,3 km/h (3 Bft)
_ Min-Zeit 05:55 05:55 05:50 17:25 15:15 - 21:00 - - - - - - 05:45 05:45 01:15
Minimum _ 12,2 C 12,2 C 12,3 C 57 % 1007,4 hPa - 0,0 km/h (0 Bft) - - - - - - 8,6 C 12,3 C 0,0 km/h (0 Bft)
_ Max-Zeit 17:25 17:20 17:25 02:25 16:00 16:00 16:20 - - 16:00 16:00 16:00 16:00 12:30 17:15 16:00
Maximum _ 21,3 C 21,1 C 21,3 C 80 % 1013,1 hPa 0,0 l/m 11,8 km/h
N (2 Bft)
- - 5 min 0,356 mm 5,1 UV-I 835 W/m 13,9 C 21,2 C 19,3 km/h
NW (3 Bft)
Durchschnitt _ 16,9 C 16,8 C 17,0 C 73 % 1011,2 hPa #0,0 l/m 4,8 km/h (1 Bft) NW - #10 min. #1,397 mm 2,0 UV-I 217 W/m 11,9 C 16,6 C 9,8 km/h (2 Bft)
Rauscher Max - www.gruenau.tv